createdAt,value
2018-05-08T00:03:09.497Z,56.50
2018-05-08T00:08:12.203Z,56.60
2018-05-08T00:13:15.424Z,57.20
2018-05-08T00:18:17.866Z,57.20
2018-05-08T00:23:20.313Z,57.50
2018-05-08T00:28:22.754Z,57.80
2018-05-08T00:33:25.196Z,58.10
2018-05-08T00:38:27.642Z,58.60
2018-05-08T00:43:30.081Z,58.50
2018-05-08T00:48:32.517Z,58.60
2018-05-08T00:53:34.968Z,58.90
2018-05-08T00:58:37.410Z,58.90
2018-05-08T01:03:39.857Z,59.00
2018-05-08T01:08:42.308Z,59.00
2018-05-08T01:13:45.517Z,59.50
2018-05-08T01:18:48.733Z,59.70
2018-05-08T01:23:51.965Z,59.60
2018-05-08T01:28:54.401Z,59.60
2018-05-08T01:33:56.841Z,59.60
2018-05-08T01:38:59.336Z,60.00
2018-05-08T01:44:01.806Z,60.00
2018-05-08T01:49:04.237Z,60.10
2018-05-08T01:54:06.681Z,60.00
2018-05-08T01:59:09.893Z,59.20
2018-05-08T02:04:13.106Z,59.70
2018-05-08T02:09:16.344Z,59.40
2018-05-08T02:14:19.001Z,59.40
2018-05-08T02:19:21.437Z,59.50
2018-05-08T02:24:23.883Z,59.30
2018-05-08T02:29:26.343Z,59.30
2018-05-08T02:34:28.793Z,59.20
2018-05-08T02:39:32.001Z,59.40
2018-05-08T02:44:35.214Z,59.30
2018-05-08T02:49:38.417Z,59.20
2018-05-08T02:54:42.205Z,59.00
2018-05-08T02:59:44.672Z,58.90
2018-05-08T03:04:47.108Z,58.60
2018-05-08T03:09:49.561Z,58.40
2018-05-08T03:14:52.004Z,58.10
2018-05-08T03:19:54.520Z,57.80
2018-05-08T03:24:57.029Z,57.80
2018-05-08T03:29:59.470Z,57.80
2018-05-08T03:35:01.914Z,57.80
2018-05-08T03:40:04.397Z,57.90
2018-05-08T03:45:06.837Z,57.90
2018-05-08T03:50:10.041Z,57.50
2018-05-08T03:55:12.486Z,57.50
2018-05-08T04:00:27.061Z,57.30
2018-05-08T04:05:41.345Z,57.20
2018-05-08T04:10:43.789Z,56.90
2018-05-08T04:15:46.294Z,56.90
2018-05-08T04:20:49.502Z,56.60
2018-05-08T04:25:52.741Z,57.50
2018-05-08T04:30:55.194Z,56.80
2018-05-08T04:35:57.625Z,57.00
2018-05-08T04:41:00.965Z,57.10
2018-05-08T04:46:03.422Z,56.90
2018-05-08T04:51:05.858Z,56.60
2018-05-08T04:56:08.305Z,56.30
2018-05-08T05:01:11.509Z,55.60
2018-05-08T05:06:14.714Z,54.90
2018-05-08T05:11:17.926Z,54.40
2018-05-08T05:16:21.518Z,53.80
2018-05-08T05:21:23.954Z,53.80
2018-05-08T05:26:26.398Z,53.60
2018-05-08T05:31:29.003Z,53.00
2018-05-08T05:36:32.970Z,52.20
2018-05-08T05:41:35.486Z,52.10
2018-05-08T05:46:37.998Z,51.60
2018-05-08T05:51:40.447Z,51.30
2018-05-08T05:56:42.886Z,51.30
2018-05-08T06:01:45.439Z,50.50
2018-05-08T06:06:47.882Z,50.50
2018-05-08T06:11:50.504Z,49.40
2018-05-08T06:16:52.874Z,49.10
2018-05-08T06:21:56.825Z,48.80
2018-05-08T06:27:00.034Z,47.40
2018-05-08T06:32:03.240Z,46.80
2018-05-08T06:37:06.451Z,46.50
2018-05-08T06:42:09.663Z,45.60
2018-05-08T06:47:12.894Z,45.70
2018-05-08T06:52:15.380Z,45.70
2018-05-08T06:57:18.565Z,45.20
2018-05-08T07:02:21.786Z,45.30
2018-05-08T07:07:25.023Z,45.00
2018-05-08T07:12:27.460Z,44.90
2018-05-08T07:17:29.913Z,44.70
2018-05-08T07:22:32.362Z,44.40
2018-05-08T07:27:35.582Z,44.70
2018-05-08T07:32:38.794Z,44.50
2018-05-08T07:37:42.002Z,44.50
2018-05-08T07:42:45.211Z,43.80
2018-05-08T07:47:48.426Z,43.70
2018-05-08T07:52:51.636Z,43.10
2018-05-08T07:57:54.870Z,42.50
2018-05-08T08:02:57.301Z,42.40
2018-05-08T08:07:59.746Z,43.00
2018-05-08T08:13:02.249Z,41.70
2018-05-08T08:18:04.742Z,42.00
2018-05-08T08:23:07.184Z,41.40
2018-05-08T08:28:09.634Z,41.00
2018-05-08T08:33:12.084Z,40.20
2018-05-08T08:38:15.300Z,40.10
2018-05-08T08:43:18.529Z,39.60
2018-05-08T08:48:21.008Z,39.50
2018-05-08T08:53:23.430Z,39.90
2018-05-08T09:03:34.925Z,39.00
2018-05-08T09:08:38.136Z,38.30
2018-05-08T09:13:41.354Z,37.90
2018-05-08T09:18:44.598Z,38.60
2018-05-08T09:23:47.048Z,38.60
2018-05-08T09:28:49.489Z,37.30
2018-05-08T09:33:51.941Z,37.10
2018-05-08T09:38:55.152Z,37.20
2018-05-08T09:43:58.365Z,37.00
2018-05-08T09:49:01.586Z,36.30
2018-05-08T09:54:04.095Z,36.20
2018-05-08T09:59:07.302Z,36.50
2018-05-08T10:04:09.751Z,36.50
2018-05-08T10:09:12.290Z,35.40
2018-05-08T10:14:14.786Z,35.20
2018-05-08T10:19:17.223Z,35.80
2018-05-08T10:24:19.665Z,34.70
2018-05-08T10:29:22.113Z,33.80
2018-05-08T10:34:24.559Z,33.20
2018-05-08T10:39:27.034Z,33.00
2018-05-08T10:44:29.468Z,34.20
2018-05-08T10:49:31.926Z,34.50
2018-05-08T10:54:34.372Z,34.20
2018-05-08T10:59:36.821Z,34.50
2018-05-08T11:04:39.300Z,34.30
2018-05-08T11:09:41.800Z,34.40
2018-05-08T11:14:44.245Z,35.00
2018-05-08T11:19:46.737Z,35.20
2018-05-08T11:24:49.167Z,34.50
2018-05-08T11:29:51.666Z,33.10
2018-05-08T11:34:54.111Z,31.90
2018-05-08T11:39:56.560Z,31.80
2018-05-08T11:44:59.033Z,30.10
2018-05-08T11:50:01.563Z,30.80
2018-05-08T11:55:04.005Z,33.10
2018-05-08T12:00:06.514Z,33.00
2018-05-08T12:05:08.959Z,33.60
2018-05-08T12:10:11.395Z,33.40
2018-05-08T12:15:13.837Z,33.00
2018-05-08T12:20:16.285Z,33.40
2018-05-08T12:25:18.735Z,34.00
2018-05-08T12:30:21.174Z,33.40
2018-05-08T12:35:23.667Z,33.90
2018-05-08T12:40:26.110Z,32.80
2018-05-08T12:45:28.558Z,33.20
2018-05-08T12:50:31.022Z,33.90
2018-05-08T12:55:34.228Z,32.80
2018-05-08T13:00:37.433Z,32.80
2018-05-08T13:05:41.178Z,33.10
2018-05-08T13:10:43.613Z,33.10
2018-05-08T13:15:46.064Z,33.10
2018-05-08T13:20:48.556Z,32.30
2018-05-08T13:25:51.049Z,32.40
2018-05-08T13:30:53.494Z,30.50
2018-05-08T13:35:55.937Z,30.00
2018-05-08T13:40:58.411Z,29.10
2018-05-08T13:46:00.842Z,29.30
2018-05-08T13:51:03.277Z,30.50
2018-05-08T13:56:05.721Z,29.60
2018-05-08T14:01:08.165Z,29.80
2018-05-08T14:06:11.410Z,28.70
2018-05-08T14:11:13.857Z,28.30
2018-05-08T14:16:16.300Z,28.70
2018-05-08T14:21:18.753Z,29.70
2018-05-08T14:26:21.961Z,31.10
2018-05-08T14:31:24.440Z,30.90
2018-05-08T14:36:26.849Z,30.50
2018-05-08T14:41:30.064Z,30.00
2018-05-08T14:46:33.266Z,29.90
2018-05-08T14:51:35.706Z,29.90
2018-05-08T14:56:38.148Z,29.30
2018-05-08T15:01:40.677Z,30.00
2018-05-08T15:06:43.170Z,29.20
2018-05-08T15:11:45.675Z,29.20
2018-05-08T15:16:48.178Z,29.50
2018-05-08T15:21:50.675Z,29.40
2018-05-08T15:26:53.855Z,30.10
2018-05-08T15:31:56.325Z,30.00
2018-05-08T15:36:58.854Z,30.50
2018-05-08T15:42:01.338Z,30.70
2018-05-08T15:47:03.786Z,30.40
2018-05-08T15:52:06.235Z,31.10
2018-05-08T15:57:08.716Z,31.10
2018-05-08T16:02:11.164Z,30.80
2018-05-08T16:07:13.600Z,30.50
2018-05-08T16:12:16.124Z,30.80
2018-05-08T16:17:18.486Z,30.70
2018-05-08T16:22:20.927Z,30.50
2018-05-08T16:27:23.470Z,30.10
2018-05-08T16:32:25.909Z,30.50
2018-05-08T16:37:28.349Z,30.80
2018-05-08T16:42:30.849Z,30.50
2018-05-08T16:47:33.296Z,30.10
2018-05-08T16:52:35.738Z,30.10
2018-05-08T16:57:38.178Z,30.20
2018-05-08T17:02:40.622Z,30.80
2018-05-08T17:07:43.066Z,30.90
2018-05-08T17:12:46.316Z,31.10
2018-05-08T17:17:48.809Z,31.00
2018-05-08T17:22:51.249Z,30.70
2018-05-08T17:27:54.510Z,30.90
2018-05-08T17:32:57.021Z,31.00
2018-05-08T17:37:59.500Z,31.30
2018-05-08T17:43:01.996Z,31.30
2018-05-08T17:48:04.438Z,31.70
2018-05-08T17:53:06.977Z,32.10
2018-05-08T17:58:09.417Z,32.20
2018-05-08T18:03:11.861Z,32.30
2018-05-08T18:08:14.297Z,32.40
2018-05-08T18:13:16.849Z,32.90
2018-05-08T18:18:19.342Z,33.30
2018-05-08T18:23:21.788Z,33.60
2018-05-08T18:28:24.230Z,34.10
2018-05-08T18:33:26.669Z,34.50
2018-05-08T18:38:29.119Z,34.90
2018-05-08T18:43:31.601Z,35.20
2018-05-08T18:48:34.054Z,35.50
2018-05-08T18:53:36.495Z,36.00
2018-05-08T18:58:38.934Z,36.30
2018-05-08T19:03:42.261Z,37.10
2018-05-08T19:08:44.761Z,37.10
2018-05-08T19:13:47.970Z,37.80
2018-05-08T19:24:34.054Z,38.30
2018-05-08T19:29:42.345Z,38.80
2018-05-08T19:34:50.572Z,39.30
2018-05-08T19:39:53.814Z,40.10
2018-05-08T19:44:56.305Z,40.10
2018-05-08T19:49:58.754Z,40.60
2018-05-08T19:55:02.705Z,41.60
2018-05-08T20:00:05.916Z,42.10
2018-05-08T20:05:09.151Z,42.30
2018-05-08T20:10:11.619Z,42.30
2018-05-08T20:15:14.850Z,43.10
2018-05-08T20:20:17.342Z,43.00
2018-05-08T20:25:19.785Z,43.50
2018-05-08T20:30:22.229Z,44.10
2018-05-08T20:35:24.683Z,44.60
2018-05-08T20:40:27.134Z,45.00
2018-05-08T20:45:29.570Z,45.40
2018-05-08T20:50:32.098Z,45.80
2018-05-08T20:55:34.619Z,46.00
2018-05-08T21:00:36.985Z,46.80
2018-05-08T21:05:39.511Z,47.30
2018-05-08T21:10:41.913Z,48.10
2018-05-08T21:15:44.357Z,47.90
2018-05-08T21:20:46.798Z,48.10
2018-05-08T21:25:49.340Z,48.30
2018-05-08T21:30:57.496Z,48.40
2018-05-08T21:35:59.944Z,48.50
2018-05-08T21:41:03.155Z,49.00
2018-05-08T21:46:06.380Z,49.90
2018-05-08T21:51:08.878Z,49.20
2018-05-08T21:56:11.317Z,49.40
2018-05-08T22:01:13.754Z,49.50
2018-05-08T22:06:16.254Z,49.60
2018-05-08T22:11:19.357Z,49.90
2018-05-08T22:16:21.854Z,50.10
2018-05-08T22:21:24.294Z,50.30
2018-05-08T22:26:26.833Z,50.40
2018-05-08T22:31:29.289Z,50.50
2018-05-08T22:36:31.824Z,50.80
2018-05-08T22:41:34.264Z,51.00
2018-05-08T22:46:36.717Z,51.10
2018-05-08T22:51:39.202Z,51.30
2018-05-08T22:56:41.664Z,51.40
2018-05-08T23:01:44.106Z,51.50
2018-05-08T23:06:46.544Z,51.90
2018-05-08T23:11:48.985Z,52.00
2018-05-08T23:16:51.425Z,52.20
2018-05-08T23:21:53.860Z,52.40
2018-05-08T23:26:56.359Z,52.50
2018-05-08T23:31:58.793Z,52.60
2018-05-08T23:37:02.748Z,52.90
2018-05-08T23:42:05.950Z,53.00
2018-05-08T23:47:09.154Z,52.90
2018-05-08T23:52:11.593Z,52.90
2018-05-08T23:57:14.069Z,53.20
